Time;durP1;ratioP1;P1;durP2;ratioP2;P2;SDS_P1;SDS_P2;PMS_P1;PMS_P2;Temp;Humidity;BMP_temperature;BMP_pressure;BME280_temperature;BME280_humidity;BME280_pressure;Samples;Min_cycle;Max_cycle;Signal;HPM_P1;HPM_P2
2021/01/05 00:01:25;;;;;;;9.50;5.10;;;1.40;99.90;;;;;;1974589;72;21020;-74
2021/01/05 00:03:51;;;;;;;11.25;5.40;;;1.40;99.90;;;;;;1974345;72;21124;-74
2021/01/05 00:06:17;;;;;;;10.15;5.03;;;1.40;99.90;;;;;;1984947;72;21156;-74
2021/01/05 00:08:44;;;;;;;10.68;5.62;;;1.40;99.90;;;;;;1982369;72;21070;-74
2021/01/05 00:11:10;;;;;;;8.48;5.17;;;1.40;99.90;;;;;;1978795;72;21593;-75
2021/01/05 00:13:36;;;;;;;14.35;5.90;;;1.30;99.90;;;;;;1972987;72;21537;-74
2021/01/05 00:16:02;;;;;;;14.00;5.30;;;1.30;99.90;;;;;;1982117;72;21427;-74
2021/01/05 00:18:28;;;;;;;9.18;5.58;;;1.40;99.90;;;;;;1975781;72;21053;-74
2021/01/05 00:20:54;;;;;;;9.18;5.58;;;1.30;99.90;;;;;;1975871;72;21070;-74
2021/01/05 00:23:20;;;;;;;11.88;5.92;;;1.30;99.90;;;;;;1978700;72;21058;-74
2021/01/05 00:25:46;;;;;;;11.30;4.97;;;1.30;99.90;;;;;;1979727;72;21067;-74
2021/01/05 00:28:13;;;;;;;11.33;5.55;;;1.30;99.90;;;;;;1974472;72;21052;-73
2021/01/05 00:30:39;;;;;;;9.73;5.20;;;1.20;99.90;;;;;;1969884;72;21051;-75
2021/01/05 00:33:05;;;;;;;13.28;6.47;;;1.20;99.90;;;;;;1975044;72;21052;-74
2021/01/05 00:35:31;;;;;;;8.95;5.42;;;1.20;99.90;;;;;;1967444;72;21549;-74
2021/01/05 00:37:57;;;;;;;10.15;5.83;;;1.20;99.90;;;;;;1968046;72;21467;-76
2021/01/05 00:40:23;;;;;;;10.43;6.30;;;1.20;99.90;;;;;;1974287;72;21486;-73
2021/01/05 00:42:49;;;;;;;12.70;6.37;;;1.20;99.90;;;;;;1974659;73;21035;-74
2021/01/05 00:45:15;;;;;;;13.88;6.33;;;1.20;99.90;;;;;;1974447;72;21047;-74
2021/01/05 00:47:42;;;;;;;9.78;5.33;;;1.30;99.90;;;;;;1967395;72;21129;-74
2021/01/05 00:50:08;;;;;;;10.58;5.97;;;1.30;99.90;;;;;;1974555;73;21032;-75
2021/01/05 00:52:34;;;;;;;10.98;5.85;;;1.30;99.90;;;;;;1980786;72;21058;-73
2021/01/05 00:55:00;;;;;;;15.00;6.47;;;1.30;99.90;;;;;;1976293;72;21156;-73
2021/01/05 00:57:26;;;;;;;10.63;5.72;;;1.40;99.90;;;;;;1968326;72;21060;-74
2021/01/05 00:59:52;;;;;;;9.98;5.85;;;1.40;99.90;;;;;;1974876;73;21173;-74
2021/01/05 01:02:18;;;;;;;11.33;5.95;;;1.40;99.90;;;;;;1971774;72;21123;-74
2021/01/05 01:04:44;;;;;;;7.58;5.03;;;1.40;99.90;;;;;;1974031;72;21040;-74
2021/01/05 01:07:10;;;;;;;12.50;6.55;;;1.40;99.90;;;;;;1968966;72;21093;-75
2021/01/05 01:09:37;;;;;;;9.88;5.35;;;1.40;99.90;;;;;;1979151;72;21078;-74
2021/01/05 01:12:03;;;;;;;12.68;5.95;;;1.40;99.90;;;;;;1982499;72;21458;-74
2021/01/05 01:14:29;;;;;;;12.58;5.95;;;1.40;99.90;;;;;;1991581;72;21505;-75
2021/01/05 01:16:55;;;;;;;11.78;6.42;;;1.40;99.90;;;;;;1990113;72;21464;-75
2021/01/05 01:19:21;;;;;;;16.15;6.60;;;1.40;99.90;;;;;;1972401;72;21055;-74
2021/01/05 01:21:47;;;;;;;11.73;5.92;;;1.40;99.90;;;;;;1967063;72;21125;-75
2021/01/05 01:24:13;;;;;;;15.58;6.47;;;1.30;99.90;;;;;;1974767;73;21113;-75
2021/01/05 01:26:39;;;;;;;10.72;5.90;;;1.30;99.90;;;;;;1974436;72;21136;-74
2021/01/05 01:29:06;;;;;;;12.90;6.33;;;1.30;99.90;;;;;;1974548;73;21019;-75
2021/01/05 01:31:32;;;;;;;14.20;5.55;;;1.40;99.90;;;;;;1971434;72;21063;-74
2021/01/05 01:33:58;;;;;;;11.70;6.42;;;1.30;99.90;;;;;;1974698;72;21064;-75
2021/01/05 01:36:24;;;;;;;7.83;5.33;;;1.40;99.90;;;;;;1974509;73;21064;-75
2021/01/05 01:38:50;;;;;;;12.63;6.22;;;1.40;99.90;;;;;;1977374;72;21588;-75
2021/01/05 01:41:16;;;;;;;10.85;6.10;;;1.40;99.90;;;;;;1971307;72;21460;-75
2021/01/05 01:43:42;;;;;;;13.60;6.05;;;1.30;99.90;;;;;;1974667;73;21529;-74
2021/01/05 01:46:08;;;;;;;11.68;6.53;;;1.30;99.90;;;;;;1971619;72;21058;-75
2021/01/05 01:48:35;;;;;;;10.60;5.55;;;1.30;99.90;;;;;;1973287;72;21117;-75
2021/01/05 01:51:01;;;;;;;16.75;6.15;;;1.30;99.90;;;;;;1972622;72;21020;-75
2021/01/05 01:53:27;;;;;;;9.15;5.67;;;1.30;99.90;;;;;;1982504;72;21055;-75
2021/01/05 01:55:53;;;;;;;11.00;6.50;;;1.40;99.90;;;;;;1975833;72;21109;-75
2021/01/05 01:58:19;;;;;;;13.00;6.08;;;1.40;99.90;;;;;;1987989;72;21067;-75
2021/01/05 02:00:45;;;;;;;10.03;5.87;;;1.40;99.90;;;;;;1974603;72;21063;-75
2021/01/05 02:03:12;;;;;;;13.45;6.30;;;1.40;99.90;;;;;;1970443;72;21132;-75
2021/01/05 02:05:39;;;;;;;9.80;5.75;;;1.40;99.90;;;;;;1967619;72;21063;-75
2021/01/05 02:08:06;;;;;;;10.65;5.78;;;1.40;99.90;;;;;;1973407;72;21043;-75
2021/01/05 02:10:32;;;;;;;10.15;5.85;;;1.40;99.90;;;;;;1979009;72;21458;-75
2021/01/05 02:12:58;;;;;;;12.75;6.37;;;1.50;99.90;;;;;;1986917;72;21520;-75
2021/01/05 02:15:24;;;;;;;15.20;6.42;;;1.50;99.90;;;;;;1974499;72;21438;-74
2021/01/05 02:17:51;;;;;;;12.80;6.65;;;1.40;99.90;;;;;;1983228;72;21584;-74
2021/01/05 02:20:17;;;;;;;14.73;7.15;;;1.40;99.90;;;;;;1974517;72;21071;-75
2021/01/05 02:22:43;;;;;;;9.75;5.75;;;1.40;99.90;;;;;;1970908;72;21113;-74
2021/01/05 02:25:09;;;;;;;10.53;5.70;;;1.40;99.90;;;;;;1975330;72;21043;-75
2021/01/05 02:27:35;;;;;;;11.70;5.95;;;1.50;99.90;;;;;;1991652;72;21471;-75
2021/01/05 02:30:01;;;;;;;12.40;6.37;;;1.60;99.90;;;;;;1978271;72;21032;-74
2021/01/05 02:32:28;;;;;;;9.88;5.75;;;1.70;99.90;;;;;;1971532;72;21258;-75
2021/01/05 02:34:54;;;;;;;12.80;6.17;;;1.70;99.90;;;;;;1969814;72;21064;-75
2021/01/05 02:37:20;;;;;;;8.90;5.42;;;1.70;99.90;;;;;;1975900;72;21042;-75
2021/01/05 02:39:46;;;;;;;10.88;5.85;;;1.70;99.90;;;;;;1974434;72;21059;-75
2021/01/05 02:42:12;;;;;;;12.28;6.17;;;1.70;99.90;;;;;;1974644;72;21060;-75
2021/01/05 02:44:38;;;;;;;11.40;5.65;;;1.70;99.90;;;;;;1974090;72;21040;-74
2021/01/05 02:47:04;;;;;;;9.78;5.17;;;1.70;99.90;;;;;;1971319;72;21052;-75
2021/01/05 02:49:30;;;;;;;9.38;5.30;;;1.70;99.90;;;;;;1974621;73;21181;-74
2021/01/05 02:51:57;;;;;;;11.53;6.35;;;1.70;99.90;;;;;;1971607;72;21172;-74
2021/01/05 02:54:23;;;;;;;9.65;5.75;;;1.60;99.90;;;;;;1983588;72;21067;-75
2021/01/05 02:56:49;;;;;;;7.97;5.67;;;1.70;99.90;;;;;;1974690;72;21059;-75
2021/01/05 02:59:15;;;;;;;10.30;6.05;;;1.70;99.90;;;;;;1971733;72;21552;-75
2021/01/05 03:01:41;;;;;;;10.20;6.08;;;1.60;99.90;;;;;;1973032;72;21450;-75
2021/01/05 03:04:07;;;;;;;10.75;6.28;;;1.60;99.90;;;;;;1978347;72;21466;-75
2021/01/05 03:06:33;;;;;;;12.50;6.60;;;1.60;99.90;;;;;;1974447;72;21062;-74
2021/01/05 03:08:59;;;;;;;11.75;6.35;;;1.60;99.90;;;;;;1974609;72;21052;-74
2021/01/05 03:11:26;;;;;;;16.77;7.03;;;1.50;99.90;;;;;;1971352;72;21088;-74
2021/01/05 03:13:52;;;;;;;11.95;6.40;;;1.60;99.90;;;;;;1967408;72;21127;-74
2021/01/05 03:16:18;;;;;;;12.07;6.42;;;1.60;99.90;;;;;;1975845;72;21028;-75
2021/01/05 03:18:44;;;;;;;14.87;6.40;;;1.60;99.90;;;;;;1965475;72;21062;-75
2021/01/05 03:21:10;;;;;;;10.03;5.58;;;1.60;99.90;;;;;;1974591;72;21152;-74
2021/01/05 03:23:36;;;;;;;11.12;5.87;;;1.70;99.90;;;;;;1974505;72;21129;-74
2021/01/05 03:26:02;;;;;;;10.43;6.00;;;1.80;99.90;;;;;;1971388;72;21482;-75
2021/01/05 03:28:28;;;;;;;15.05;6.47;;;1.70;99.90;;;;;;1974357;72;21435;-74
2021/01/05 03:30:55;;;;;;;12.33;6.30;;;1.70;99.90;;;;;;1983669;72;21439;-75
2021/01/05 03:33:21;;;;;;;14.45;6.70;;;1.70;99.90;;;;;;1966584;72;21127;-74
2021/01/05 03:35:47;;;;;;;16.67;6.25;;;1.80;99.90;;;;;;1979994;72;21120;-75
2021/01/05 03:38:13;;;;;;;15.98;6.50;;;1.80;99.90;;;;;;1974656;72;21119;-75
2021/01/05 03:40:39;;;;;;;7.95;5.08;;;1.80;99.90;;;;;;1974431;72;21059;-74
2021/01/05 03:43:05;;;;;;;12.53;6.72;;;1.70;99.90;;;;;;1967260;72;21064;-74
2021/01/05 03:45:31;;;;;;;14.18;7.05;;;1.80;99.90;;;;;;1971261;72;21040;-75
2021/01/05 03:47:57;;;;;;;11.73;5.75;;;1.80;99.90;;;;;;1974701;73;21051;-75
2021/01/05 03:50:23;;;;;;;12.30;5.78;;;1.80;99.90;;;;;;1974093;72;21054;-75
2021/01/05 03:52:50;;;;;;;16.02;6.05;;;1.80;99.90;;;;;;1977337;72;21067;-74
2021/01/05 03:55:16;;;;;;;12.30;6.53;;;1.70;99.90;;;;;;1974579;73;21113;-75
2021/01/05 03:57:42;;;;;;;12.95;7.08;;;1.70;99.90;;;;;;1964083;72;21066;-75
2021/01/05 04:00:08;;;;;;;24.70;7.40;;;1.70;99.90;;;;;;1971148;72;21101;-75
2021/01/05 04:02:34;;;;;;;13.50;6.47;;;1.70;99.90;;;;;;1970969;72;21063;-75
2021/01/05 04:05:00;;;;;;;16.95;6.37;;;1.80;99.90;;;;;;1974470;72;21459;-75
2021/01/05 04:07:26;;;;;;;18.32;7.40;;;1.90;99.90;;;;;;1971293;72;21475;-74
2021/01/05 04:09:52;;;;;;;12.40;6.85;;;2.00;99.90;;;;;;1974573;73;21479;-75
2021/01/05 04:12:19;;;;;;;12.90;6.62;;;1.90;99.90;;;;;;1974441;72;21028;-75
2021/01/05 04:14:45;;;;;;;14.60;7.33;;;1.80;99.90;;;;;;1974469;72;21048;-75
2021/01/05 04:17:11;;;;;;;13.08;6.92;;;1.80;99.90;;;;;;1967645;72;21111;-74
2021/01/05 04:19:37;;;;;;;15.72;7.58;;;1.80;99.90;;;;;;1981213;72;21136;-74
2021/01/05 04:22:03;;;;;;;12.00;6.97;;;1.80;99.90;;;;;;1970060;72;21051;-75
2021/01/05 04:24:29;;;;;;;20.45;8.30;;;1.80;99.90;;;;;;1972900;72;21059;-75
2021/01/05 04:26:55;;;;;;;22.20;7.22;;;1.80;99.90;;;;;;1972557;72;21023;-74
2021/01/05 04:29:21;;;;;;;14.38;7.62;;;1.80;99.90;;;;;;1981504;72;21083;-74
2021/01/05 04:31:48;;;;;;;11.43;6.75;;;1.70;99.90;;;;;;1967688;72;21095;-73
2021/01/05 04:34:14;;;;;;;13.93;7.22;;;1.70;99.90;;;;;;1979965;72;21124;-74
2021/01/05 04:36:40;;;;;;;17.30;6.90;;;1.80;99.90;;;;;;1978740;72;21067;-75
2021/01/05 04:39:06;;;;;;;19.92;7.95;;;1.70;99.90;;;;;;1974218;72;21200;-74
2021/01/05 04:41:32;;;;;;;15.63;7.90;;;1.70;99.90;;;;;;1974328;73;21125;-74
2021/01/05 04:43:58;;;;;;;11.18;6.80;;;1.80;99.90;;;;;;1981148;72;21552;-73
2021/01/05 04:46:24;;;;;;;14.18;7.83;;;1.80;99.90;;;;;;1991190;72;21399;-74
2021/01/05 04:48:50;;;;;;;21.23;8.38;;;1.80;99.90;;;;;;1978321;72;21545;-74
2021/01/05 04:51:17;;;;;;;14.30;7.70;;;1.80;99.90;;;;;;1967938;72;21068;-74
2021/01/05 04:53:43;;;;;;;14.10;8.18;;;1.70;99.90;;;;;;1965824;72;21060;-74
2021/01/05 04:56:09;;;;;;;19.90;8.73;;;1.80;99.90;;;;;;1970590;72;21158;-75
2021/01/05 04:58:35;;;;;;;12.68;7.25;;;1.80;99.90;;;;;;1961976;72;21037;-74
2021/01/05 05:01:01;;;;;;;18.20;9.10;;;1.70;99.90;;;;;;1981938;72;21102;-74
2021/01/05 05:03:27;;;;;;;18.17;7.75;;;1.80;99.90;;;;;;1978032;72;21063;-74
2021/01/05 05:05:53;;;;;;;15.48;7.85;;;1.80;99.90;;;;;;1970705;72;21136;-74
2021/01/05 05:08:19;;;;;;;17.35;8.65;;;1.80;99.90;;;;;;1970601;72;21182;-73
2021/01/05 05:10:45;;;;;;;12.43;7.37;;;1.90;99.90;;;;;;1974195;72;21520;-74
2021/01/05 05:13:12;;;;;;;23.07;8.80;;;1.90;99.90;;;;;;1973331;72;21557;-75
2021/01/05 05:15:38;;;;;;;17.15;8.85;;;1.90;99.90;;;;;;1986680;72;21406;-74
2021/01/05 05:18:04;;;;;;;19.20;8.25;;;1.80;99.90;;;;;;1984726;72;21046;-74
2021/01/05 05:20:30;;;;;;;19.65;8.35;;;1.90;99.90;;;;;;1982002;71;21117;-74
2021/01/05 05:22:56;;;;;;;19.90;8.85;;;1.90;99.90;;;;;;1980335;69;21110;-74
2021/01/05 05:25:22;;;;;;;13.38;7.40;;;1.90;99.90;;;;;;1978059;71;21100;-75
2021/01/05 05:27:48;;;;;;;19.57;9.20;;;1.90;99.90;;;;;;1977991;71;21061;-74
2021/01/05 05:30:15;;;;;;;14.43;8.18;;;1.80;99.90;;;;;;1977874;71;21060;-74
2021/01/05 05:32:42;;;;;;;20.97;8.90;;;1.80;99.90;;;;;;1977748;71;21321;-74
2021/01/05 05:35:08;;;;;;;17.42;8.98;;;1.90;99.90;;;;;;1974883;72;21405;-74
2021/01/05 05:37:34;;;;;;;14.40;7.72;;;1.90;99.90;;;;;;1970680;72;21054;-74
2021/01/05 05:40:00;;;;;;;17.52;8.68;;;2.00;99.90;;;;;;1966228;72;21067;-74
2021/01/05 05:42:26;;;;;;;16.97;8.68;;;2.00;99.90;;;;;;1972802;72;21117;-73
2021/01/05 05:44:52;;;;;;;19.00;9.43;;;2.00;99.90;;;;;;1981228;72;21113;-73
2021/01/05 05:47:19;;;;;;;19.92;9.28;;;2.10;99.90;;;;;;1970482;72;21042;-73
2021/01/05 05:49:45;;;;;;;16.52;8.88;;;2.10;99.90;;;;;;1970667;72;21262;-72
2021/01/05 05:52:11;;;;;;;21.52;9.68;;;2.10;99.90;;;;;;1974120;72;21152;-74
2021/01/05 05:54:37;;;;;;;15.53;8.63;;;2.10;99.90;;;;;;1973824;72;22577;-73
2021/01/05 05:57:03;;;;;;;22.07;9.80;;;2.00;99.90;;;;;;1974891;72;21544;-73
2021/01/05 05:59:29;;;;;;;15.18;8.43;;;2.10;99.90;;;;;;1973106;72;21424;-75
2021/01/05 06:01:55;;;;;;;20.30;8.65;;;1.90;99.90;;;;;;1983540;72;21055;-74
2021/01/05 06:04:21;;;;;;;23.85;9.53;;;1.90;99.90;;;;;;1969910;72;21185;-74
2021/01/05 06:06:48;;;;;;;19.62;10.03;;;2.00;99.90;;;;;;1982303;72;21062;-74
2021/01/05 06:09:14;;;;;;;18.05;9.83;;;2.00;99.90;;;;;;1974514;72;21169;-74
2021/01/05 06:11:40;;;;;;;17.98;10.18;;;2.10;99.90;;;;;;1971050;72;21137;-74
2021/01/05 06:14:06;;;;;;;14.73;8.78;;;2.10;99.90;;;;;;1967638;72;21117;-74
2021/01/05 06:16:32;;;;;;;17.48;9.43;;;2.10;99.90;;;;;;1984947;72;21106;-74
2021/01/05 06:18:58;;;;;;;17.67;9.33;;;2.10;99.90;;;;;;1970339;72;21108;-74
2021/01/05 06:21:24;;;;;;;20.82;8.90;;;2.10;99.90;;;;;;1974007;73;21428;-74
2021/01/05 06:23:50;;;;;;;18.32;9.08;;;2.10;99.90;;;;;;1975136;72;21483;-74
2021/01/05 06:26:17;;;;;;;15.45;8.28;;;2.10;99.90;;;;;;1971246;72;21471;-74
2021/01/05 06:28:43;;;;;;;17.60;8.73;;;2.10;99.90;;;;;;1973506;72;21036;-74
2021/01/05 06:31:09;;;;;;;17.48;8.73;;;2.00;99.90;;;;;;1973347;72;21057;-73
2021/01/05 06:33:35;;;;;;;20.12;9.90;;;1.90;99.90;;;;;;1967938;72;21141;-74
2021/01/05 06:36:01;;;;;;;18.25;9.23;;;1.90;99.90;;;;;;1970384;72;21112;-74
2021/01/05 06:38:29;;;;;;;22.27;8.78;;;2.00;99.90;;;;;;1966005;72;21038;-74
2021/01/05 06:40:56;;;;;;;19.57;9.40;;;2.10;99.90;;;;;;1965606;72;21166;-73
2021/01/05 06:43:23;;;;;;;17.40;9.23;;;2.10;99.90;;;;;;1977115;72;21063;-75
2021/01/05 06:45:49;;;;;;;16.87;9.20;;;2.10;99.90;;;;;;1979935;72;21055;-74
2021/01/05 06:48:15;;;;;;;19.42;9.95;;;2.10;99.90;;;;;;1967307;72;21062;-74
2021/01/05 06:50:41;;;;;;;21.90;9.45;;;2.10;99.90;;;;;;1982038;72;21030;-74
2021/01/05 06:53:07;;;;;;;19.27;9.58;;;2.10;99.90;;;;;;1969494;72;21056;-74
2021/01/05 06:55:33;;;;;;;15.70;8.60;;;2.00;99.90;;;;;;1971616;72;21170;-73
2021/01/05 06:58:01;;;;;;;22.05;8.73;;;2.00;99.90;;;;;;1970648;72;21052;-74
2021/01/05 07:00:27;;;;;;;14.15;8.28;;;2.00;99.90;;;;;;1973884;72;21055;-74
2021/01/05 07:02:53;;;;;;;16.87;8.38;;;2.10;99.90;;;;;;1972416;72;21058;-74
2021/01/05 07:05:19;;;;;;;17.42;8.65;;;2.10;99.90;;;;;;1973990;72;21055;-74
2021/01/05 07:07:45;;;;;;;15.00;8.50;;;2.20;99.90;;;;;;1979969;72;21092;-74
2021/01/05 07:10:12;;;;;;;12.73;8.45;;;2.20;99.90;;;;;;1970615;72;21063;-74
2021/01/05 07:12:38;;;;;;;16.90;8.80;;;2.20;99.90;;;;;;1969321;72;21058;-75
2021/01/05 07:15:04;;;;;;;16.15;9.45;;;2.20;99.90;;;;;;1970135;72;21067;-74
2021/01/05 07:17:30;;;;;;;18.82;8.63;;;2.10;99.90;;;;;;1978815;72;21023;-74
2021/01/05 07:19:56;;;;;;;19.87;9.03;;;2.20;99.90;;;;;;1988470;72;21572;-74
2021/01/05 07:22:22;;;;;;;16.87;9.13;;;2.10;99.90;;;;;;1968468;72;21588;-76
2021/01/05 07:24:48;;;;;;;17.32;8.98;;;2.10;99.90;;;;;;1973762;72;21486;-75
2021/01/05 07:27:14;;;;;;;18.40;9.20;;;2.20;99.90;;;;;;1976995;72;21067;-76
2021/01/05 07:29:40;;;;;;;17.92;9.50;;;2.20;99.90;;;;;;1973787;72;21060;-77
2021/01/05 07:32:07;;;;;;;17.98;8.08;;;2.20;99.90;;;;;;1970676;72;21035;-78
2021/01/05 07:34:37;;;;;;;18.75;9.73;;;2.20;99.90;;;;;;1982451;72;21055;-78
2021/01/05 07:37:01;;;;;;;18.45;8.88;;;2.10;99.90;;;;;;1973187;72;21508;-77
2021/01/05 07:39:27;;;;;;;16.23;8.68;;;2.10;99.90;;;;;;1973936;72;21479;-73
2021/01/05 07:41:53;;;;;;;16.52;8.25;;;2.10;99.90;;;;;;1976696;72;21051;-74
2021/01/05 07:44:19;;;;;;;19.15;8.90;;;2.20;99.90;;;;;;1969356;72;21061;-73
2021/01/05 07:46:45;;;;;;;20.45;8.28;;;2.20;99.90;;;;;;1970344;72;21028;-73
2021/01/05 07:49:11;;;;;;;15.55;8.60;;;2.20;99.90;;;;;;1966876;72;21167;-74
2021/01/05 07:51:37;;;;;;;15.53;8.10;;;2.30;99.90;;;;;;1969387;72;21099;-75
2021/01/05 07:54:03;;;;;;;15.53;8.58;;;2.40;99.90;;;;;;1981341;72;21121;-76
2021/01/05 07:56:30;;;;;;;15.48;8.18;;;2.30;99.90;;;;;;1966597;72;21048;-75
2021/01/05 07:58:56;;;;;;;14.30;7.92;;;2.40;99.90;;;;;;1969334;72;21560;-75
2021/01/05 08:01:22;;;;;;;17.17;8.65;;;2.30;99.90;;;;;;1973934;73;21545;-76
2021/01/05 08:03:48;;;;;;;20.92;8.83;;;2.30;99.90;;;;;;1973879;72;21448;-73
2021/01/05 08:06:14;;;;;;;16.40;8.28;;;2.20;99.90;;;;;;1972559;72;21128;-73
2021/01/05 08:08:41;;;;;;;30.20;9.70;;;2.20;99.90;;;;;;1970705;72;21059;-76
2021/01/05 08:11:07;;;;;;;20.52;8.78;;;2.00;99.90;;;;;;1974399;72;21058;-73
2021/01/05 08:13:33;;;;;;;19.42;9.28;;;2.10;99.90;;;;;;1973969;72;21060;-75
2021/01/05 08:15:59;;;;;;;18.48;8.80;;;2.00;99.90;;;;;;1973890;72;21059;-75
2021/01/05 08:18:25;;;;;;;13.20;7.85;;;2.10;99.90;;;;;;1961872;72;21062;-75
2021/01/05 08:20:51;;;;;;;14.03;8.58;;;2.20;99.90;;;;;;1974683;72;21106;-75
2021/01/05 08:23:18;;;;;;;17.60;8.78;;;2.20;99.90;;;;;;1970280;72;21482;-73
2021/01/05 08:25:45;;;;;;;14.10;8.20;;;2.30;99.90;;;;;;1974098;72;21059;-73
2021/01/05 08:28:11;;;;;;;13.98;8.03;;;2.30;99.90;;;;;;1965784;72;21487;-75
2021/01/05 08:30:39;;;;;;;14.25;8.15;;;2.30;99.90;;;;;;1975222;72;21454;-74
2021/01/05 08:33:05;;;;;;;15.75;9.00;;;2.30;99.90;;;;;;1973822;73;21066;-77
2021/01/05 08:35:31;;;;;;;20.75;8.83;;;2.30;99.90;;;;;;1974737;72;21101;-75
2021/01/05 08:37:57;;;;;;;16.02;9.25;;;2.30;99.90;;;;;;1984502;72;21486;-74
2021/01/05 08:40:25;;;;;;;13.35;7.58;;;2.40;99.90;;;;;;1972004;72;21419;-74
2021/01/05 08:42:51;;;;;;;11.20;7.78;;;2.40;99.90;;;;;;1985151;72;21118;-74
2021/01/05 08:45:17;;;;;;;17.77;8.40;;;2.40;99.90;;;;;;1973644;72;21063;-74
2021/01/05 08:47:43;;;;;;;18.45;8.15;;;2.40;99.90;;;;;;1970715;72;21046;-74
2021/01/05 08:50:09;;;;;;;17.15;8.00;;;2.40;99.90;;;;;;1978053;72;21131;-74
2021/01/05 08:52:35;;;;;;;11.50;7.60;;;2.40;99.90;;;;;;1981200;72;21032;-75
2021/01/05 08:55:02;;;;;;;15.23;8.48;;;2.40;99.90;;;;;;1971597;72;21531;-74
2021/01/05 08:57:28;;;;;;;12.15;7.22;;;2.30;99.90;;;;;;1975523;72;21052;-74
2021/01/05 08:59:55;;;;;;;21.80;7.67;;;2.30;99.90;;;;;;1969816;72;21063;-74
2021/01/05 09:02:21;;;;;;;17.50;8.60;;;2.40;99.90;;;;;;1981819;72;21576;-73
2021/01/05 09:04:47;;;;;;;13.80;7.55;;;2.30;99.90;;;;;;1985820;72;21468;-74
2021/01/05 09:07:13;;;;;;;15.43;7.03;;;2.40;99.90;;;;;;1970594;72;21474;-75
2021/01/05 09:09:39;;;;;;;15.40;7.78;;;2.40;99.90;;;;;;1970806;72;21172;-74
2021/01/05 09:12:05;;;;;;;19.35;7.25;;;2.40;99.90;;;;;;1979838;72;21032;-75
2021/01/05 09:14:31;;;;;;;14.63;6.67;;;2.40;99.90;;;;;;1974034;72;21117;-75
2021/01/05 09:16:58;;;;;;;11.65;6.67;;;2.60;99.90;;;;;;1962073;72;21059;-75
2021/01/05 09:19:24;;;;;;;13.60;6.53;;;2.70;99.90;;;;;;1982328;72;21063;-76
2021/01/05 09:21:50;;;;;;;15.25;6.58;;;2.70;99.90;;;;;;1974473;72;21054;-75
2021/01/05 09:24:16;;;;;;;13.58;6.92;;;2.80;99.90;;;;;;1975411;72;21058;-75
2021/01/05 09:26:42;;;;;;;16.60;7.97;;;2.80;99.90;;;;;;1979070;72;21141;-75
2021/01/05 09:29:08;;;;;;;11.80;6.47;;;2.50;99.90;;;;;;1974148;72;21059;-75
2021/01/05 09:31:34;;;;;;;15.20;7.80;;;2.50;99.90;;;;;;1976849;72;21066;-75
2021/01/05 09:34:00;;;;;;;20.35;7.67;;;2.50;99.90;;;;;;1970788;72;21054;-75
2021/01/05 09:36:27;;;;;;;19.60;10.35;;;2.50;99.90;;;;;;1964917;72;21313;-75
2021/01/05 09:38:53;;;;;;;22.62;8.65;;;2.20;99.90;;;;;;1971447;72;21145;-75
2021/01/05 09:41:19;;;;;;;13.78;7.65;;;2.10;99.90;;;;;;1974280;72;21444;-75
2021/01/05 09:43:45;;;;;;;12.82;7.72;;;2.20;99.90;;;;;;1973217;72;21447;-75
2021/01/05 09:46:11;;;;;;;16.67;7.83;;;2.40;99.90;;;;;;1974338;72;21512;-75
2021/01/05 09:48:37;;;;;;;14.80;8.08;;;2.60;99.90;;;;;;1974257;73;21158;-75
2021/01/05 09:51:03;;;;;;;12.93;7.37;;;2.60;99.90;;;;;;1974206;72;21117;-74
2021/01/05 09:53:29;;;;;;;11.73;6.83;;;2.60;99.90;;;;;;1966664;72;21124;-75
2021/01/05 09:55:55;;;;;;;14.25;7.75;;;2.50;99.90;;;;;;1977282;72;21051;-75
2021/01/05 09:58:22;;;;;;;16.02;8.15;;;2.50;99.90;;;;;;1980354;72;21132;-73
2021/01/05 10:00:48;;;;;;;13.35;7.37;;;2.40;99.90;;;;;;1977210;72;21019;-73
2021/01/05 10:03:14;;;;;;;11.20;6.47;;;2.50;99.90;;;;;;1977278;72;21110;-73
2021/01/05 10:05:40;;;;;;;11.65;6.92;;;2.60;99.90;;;;;;1970805;72;21132;-74
2021/01/05 10:08:06;;;;;;;13.98;6.50;;;2.60;99.90;;;;;;1970716;72;21040;-75
2021/01/05 10:10:32;;;;;;;11.08;6.95;;;2.60;99.90;;;;;;1975953;72;21125;-75
2021/01/05 10:12:58;;;;;;;15.40;7.85;;;2.40;99.90;;;;;;1981285;72;21092;-74
2021/01/05 10:15:24;;;;;;;18.85;7.55;;;2.50;99.90;;;;;;1977152;72;21132;-75
2021/01/05 10:17:51;;;;;;;10.80;7.58;;;2.60;99.90;;;;;;1973896;72;21122;-76
2021/01/05 10:20:17;;;;;;;13.88;7.60;;;2.70;99.90;;;;;;1968948;72;21454;-75
2021/01/05 10:22:43;;;;;;;13.18;8.05;;;2.80;99.90;;;;;;1982591;72;21479;-75
2021/01/05 10:25:09;;;;;;;17.45;7.62;;;2.80;99.90;;;;;;1975343;72;21518;-74
2021/01/05 10:27:35;;;;;;;15.75;8.28;;;2.90;99.90;;;;;;1971622;72;21420;-75
2021/01/05 10:30:01;;;;;;;16.23;7.97;;;2.70;99.90;;;;;;1974051;73;21178;-73
2021/01/05 10:32:27;;;;;;;21.00;7.85;;;2.80;99.90;;;;;;1970715;72;21056;-75
2021/01/05 10:34:53;;;;;;;14.73;8.73;;;2.80;99.90;;;;;;1980392;72;21062;-75
2021/01/05 10:37:20;;;;;;;18.48;8.80;;;2.80;99.90;;;;;;1974056;73;21024;-75
2021/01/05 10:39:46;;;;;;;10.93;7.42;;;2.60;99.90;;;;;;1969096;72;21057;-76
2021/01/05 10:42:12;;;;;;;13.93;7.92;;;2.60;99.90;;;;;;1981950;72;21048;-73
2021/01/05 10:44:38;;;;;;;19.48;9.13;;;2.70;99.90;;;;;;1974264;72;21052;-75
2021/01/05 10:47:04;;;;;;;12.90;7.83;;;2.70;99.90;;;;;;1974011;72;21163;-75
2021/01/05 10:49:30;;;;;;;19.07;8.33;;;2.70;99.90;;;;;;1967457;72;21030;-76
2021/01/05 10:51:56;;;;;;;12.30;8.03;;;2.70;99.90;;;;;;1977914;72;21105;-73
2021/01/05 10:54:23;;;;;;;17.23;7.28;;;2.80;99.90;;;;;;1974360;73;21432;-76
2021/01/05 10:56:49;;;;;;;14.90;8.05;;;3.00;99.90;;;;;;1971304;72;21084;-73
2021/01/05 10:59:15;;;;;;;16.67;8.40;;;2.90;99.90;;;;;;1974571;72;21051;-75
2021/01/05 11:01:41;;;;;;;14.18;8.68;;;2.80;99.90;;;;;;1970864;72;21061;-74
2021/01/05 11:04:07;;;;;;;14.65;8.65;;;2.90;99.90;;;;;;1974573;72;21051;-74
2021/01/05 11:06:33;;;;;;;17.37;9.10;;;3.00;99.90;;;;;;1968812;72;21066;-74
2021/01/05 11:08:59;;;;;;;14.40;8.08;;;3.00;99.90;;;;;;1979004;72;21180;-75
2021/01/05 11:11:25;;;;;;;14.85;8.58;;;3.00;99.90;;;;;;1970269;72;21036;-74
2021/01/05 11:13:52;;;;;;;21.00;8.78;;;3.00;99.90;;;;;;1971132;72;21032;-74
2021/01/05 11:16:18;;;;;;;15.10;8.08;;;2.90;99.90;;;;;;1974464;73;21020;-75
2021/01/05 11:18:44;;;;;;;14.35;8.18;;;2.90;99.90;;;;;;1974536;73;21117;-75
2021/01/05 11:21:10;;;;;;;18.80;7.92;;;2.80;99.90;;;;;;1970855;72;21059;-74
2021/01/05 11:23:36;;;;;;;19.70;8.88;;;2.90;99.90;;;;;;1977554;72;21063;-75
2021/01/05 11:26:03;;;;;;;17.35;8.20;;;2.90;99.90;;;;;;1974664;73;21094;-74
2021/01/05 11:28:31;;;;;;;15.68;7.80;;;3.00;99.90;;;;;;1974455;73;21116;-75
2021/01/05 11:30:56;;;;;;;12.10;7.35;;;3.20;99.90;;;;;;1966402;72;21484;-74
2021/01/05 11:33:23;;;;;;;14.58;7.92;;;3.40;99.90;;;;;;1976676;72;21102;-74
2021/01/05 11:35:49;;;;;;;13.20;7.75;;;3.40;99.90;;;;;;1974392;72;21036;-74
2021/01/05 11:38:15;;;;;;;16.60;8.80;;;3.10;99.90;;;;;;1971077;72;21117;-75
2021/01/05 11:40:41;;;;;;;18.50;9.03;;;3.10;99.90;;;;;;1970815;72;21133;-74
2021/01/05 11:43:07;;;;;;;15.38;8.10;;;3.20;99.90;;;;;;1970727;72;21050;-74
2021/01/05 11:45:33;;;;;;;16.82;9.18;;;3.10;99.90;;;;;;1972648;72;21159;-74
2021/01/05 11:47:59;;;;;;;15.70;8.80;;;3.10;99.90;;;;;;1984294;72;21036;-75
2021/01/05 11:50:25;;;;;;;15.68;8.43;;;3.20;99.90;;;;;;1964593;72;21120;-74
2021/01/05 11:52:52;;;;;;;13.88;7.97;;;3.20;99.90;;;;;;1972572;72;21054;-74
2021/01/05 11:55:18;;;;;;;15.93;7.92;;;3.30;99.90;;;;;;1970879;72;21057;-74
2021/01/05 11:57:44;;;;;;;18.12;9.25;;;3.30;99.90;;;;;;1974177;72;21070;-74
2021/01/05 12:00:10;;;;;;;16.12;9.03;;;2.90;99.90;;;;;;1981827;72;21129;-76
2021/01/05 12:02:36;;;;;;;15.88;8.93;;;2.70;99.90;;;;;;1969069;72;21031;-76
2021/01/05 12:05:02;;;;;;;17.50;8.50;;;2.80;99.90;;;;;;1974926;72;21494;-76
2021/01/05 12:07:28;;;;;;;14.87;8.20;;;2.90;99.90;;;;;;1969563;72;21474;-75
2021/01/05 12:09:54;;;;;;;13.78;7.47;;;2.90;99.90;;;;;;1975752;72;21486;-75
2021/01/05 12:12:21;;;;;;;10.50;7.30;;;3.00;99.90;;;;;;1969001;72;21067;-75
2021/01/05 12:14:47;;;;;;;18.25;8.43;;;3.10;99.90;;;;;;1968393;72;21116;-75
2021/01/05 12:17:13;;;;;;;10.72;6.40;;;3.10;99.90;;;;;;1966978;72;21109;-75
2021/01/05 12:19:43;;;;;;;16.23;8.15;;;3.10;99.90;;;;;;1978371;72;21055;-75
2021/01/05 12:22:09;;;;;;;12.47;7.17;;;3.10;99.90;;;;;;1975675;72;21384;-75
2021/01/05 12:24:37;;;;;;;15.83;8.05;;;3.10;99.90;;;;;;1974362;72;21048;-74
2021/01/05 12:27:03;;;;;;;13.28;7.55;;;3.20;99.90;;;;;;1980762;72;21109;-75
2021/01/05 12:29:29;;;;;;;12.10;7.15;;;3.30;99.90;;;;;;1981430;72;21063;-74
2021/01/05 12:31:56;;;;;;;15.75;8.10;;;3.10;99.90;;;;;;1978360;72;21156;-75
2021/01/05 12:34:22;;;;;;;18.70;8.60;;;3.10;99.90;;;;;;1970876;72;21100;-75
2021/01/05 12:36:49;;;;;;;14.43;8.25;;;3.00;99.90;;;;;;1974475;73;21116;-75
2021/01/05 12:39:15;;;;;;;20.80;8.58;;;3.00;99.90;;;;;;1974352;72;21059;-73
2021/01/05 12:41:41;;;;;;;17.23;8.88;;;2.90;99.90;;;;;;1970113;72;21161;-74